createdAt,value
2023-09-17T00:02:42.124Z,98352.75
2023-09-17T00:05:44.697Z,98359.94
2023-09-17T00:08:48.615Z,98361.16
2023-09-17T00:11:51.205Z,98358.34
2023-09-17T00:14:53.964Z,98353.97
2023-09-17T00:17:56.617Z,98366.75
2023-09-17T00:20:59.198Z,98361.16
2023-09-17T00:24:03.622Z,98363.56
2023-09-17T00:27:06.741Z,98362.38
2023-09-17T00:30:10.879Z,98362.78
2023-09-17T00:33:13.662Z,98357.97
2023-09-17T00:36:16.185Z,98356.78
2023-09-17T00:39:20.099Z,98348.78
2023-09-17T00:42:22.704Z,98363.56
2023-09-17T00:45:25.281Z,98347.97
2023-09-17T00:48:28.527Z,98355.59
2023-09-17T00:51:31.166Z,98355.59
2023-09-17T00:54:35.078Z,98355.59
2023-09-17T00:57:38.738Z,98357.59
2023-09-17T01:00:41.592Z,98354.00
2023-09-17T01:03:44.019Z,98356.38
2023-09-17T01:06:47.395Z,98351.22
2023-09-17T01:09:52.324Z,98356.03
2023-09-17T01:12:54.886Z,98365.66
2023-09-17T01:16:00.245Z,98363.63
2023-09-17T01:19:04.991Z,98368.44
2023-09-17T01:22:16.291Z,98368.44
2023-09-17T01:25:25.679Z,98362.06
2023-09-17T01:28:32.760Z,98365.66
2023-09-17T01:31:35.539Z,98364.84
2023-09-17T01:34:39.462Z,98370.00
2023-09-17T01:37:46.512Z,98373.25
2023-09-17T01:40:50.447Z,98372.47
2023-09-17T01:43:54.654Z,98373.69
2023-09-17T01:46:58.622Z,98380.47
2023-09-17T01:50:01.966Z,98383.28
2023-09-17T01:53:04.792Z,98392.50
2023-09-17T01:56:07.400Z,98391.25
2023-09-17T01:59:11.392Z,98390.88
2023-09-17T02:02:14.075Z,98387.31
2023-09-17T02:05:17.530Z,98388.47
2023-09-17T02:08:19.929Z,98388.88
2023-09-17T02:11:23.089Z,98390.09
2023-09-17T02:14:26.963Z,98386.50
2023-09-17T02:17:29.661Z,98390.88
2023-09-17T02:20:32.323Z,98380.13
2023-09-17T02:23:35.789Z,98389.31
2023-09-17T02:26:38.431Z,98382.94
2023-09-17T02:29:42.455Z,98377.34
2023-09-17T02:32:45.332Z,98382.13
2023-09-17T02:35:47.937Z,98380.13
2023-09-17T02:38:50.504Z,98376.53
2023-09-17T02:41:53.068Z,98377.34
2023-09-17T02:44:56.909Z,98382.94
2023-09-17T02:47:59.455Z,98374.19
2023-09-17T02:51:03.127Z,98382.94
2023-09-17T02:54:05.983Z,98381.34
2023-09-17T02:57:08.568Z,98380.13
2023-09-17T03:00:14.277Z,98391.31
2023-09-17T03:03:17.051Z,98391.75
2023-09-17T03:06:19.500Z,98396.13
2023-09-17T03:09:22.222Z,98401.38
2023-09-17T03:12:24.760Z,98402.16
2023-09-17T03:15:29.707Z,98395.78
2023-09-17T03:18:32.278Z,98392.59
2023-09-17T03:21:39.337Z,98393.38
2023-09-17T03:24:57.750Z,98389.41
2023-09-17T03:28:04.339Z,98398.56
2023-09-17T03:31:08.235Z,98403.38
2023-09-17T03:34:10.889Z,98394.22
2023-09-17T03:37:14.542Z,98403.38
2023-09-17T03:40:17.233Z,98398.97
2023-09-17T03:43:20.220Z,98400.59
2023-09-17T03:46:24.264Z,98403.78
2023-09-17T03:49:27.427Z,98405.41
2023-09-17T03:52:30.465Z,98407.38
2023-09-17T03:55:34.660Z,98400.59
2023-09-17T03:58:37.383Z,98405.41
2023-09-17T04:01:41.498Z,98402.59
2023-09-17T04:04:44.218Z,98393.38
2023-09-17T04:07:47.702Z,98389.81
2023-09-17T04:10:51.347Z,98391.81
2023-09-17T04:13:55.558Z,98397.41
2023-09-17T04:17:01.202Z,98394.63
2023-09-17T04:20:06.185Z,98379.06
2023-09-17T04:23:09.032Z,98386.22
2023-09-17T04:26:13.818Z,98384.22
2023-09-17T04:29:16.373Z,98384.66
2023-09-17T04:32:20.362Z,98390.69
2023-09-17T04:35:23.000Z,98393.03
2023-09-17T04:38:25.720Z,98399.84
2023-09-17T04:41:28.556Z,98403.88
2023-09-17T04:44:31.075Z,98405.44
2023-09-17T04:47:36.711Z,98401.06
2023-09-17T04:50:41.512Z,98410.25
2023-09-17T04:53:44.231Z,98415.84
2023-09-17T04:56:46.763Z,98410.25
2023-09-17T04:59:50.617Z,98412.25
2023-09-17T05:02:54.759Z,98419.94
2023-09-17T05:05:57.381Z,98416.47
2023-09-17T05:08:59.894Z,98419.81
2023-09-17T05:12:02.809Z,98419.59
2023-09-17T05:15:05.618Z,98426.91
2023-09-17T05:18:11.292Z,98429.81
2023-09-17T05:21:13.914Z,98431.09
2023-09-17T05:24:16.462Z,98433.09
2023-09-17T05:27:20.274Z,98427.94
2023-09-17T05:30:22.869Z,98437.56
2023-09-17T05:33:27.455Z,98443.16
2023-09-17T05:36:30.512Z,98448.72
2023-09-17T05:39:33.097Z,98453.22
2023-09-17T05:42:35.639Z,98458.47
2023-09-17T05:45:38.411Z,98455.28
2023-09-17T05:48:42.410Z,98455.75
2023-09-17T05:51:45.692Z,98455.88
2023-09-17T05:54:48.210Z,98454.44
2023-09-17T05:57:50.742Z,98458.50
2023-09-17T06:00:54.490Z,98462.94
2023-09-17T06:03:59.176Z,98458.91
2023-09-17T06:07:01.924Z,98464.06
2023-09-17T06:10:06.104Z,98462.88
2023-09-17T06:13:09.210Z,98461.66
2023-09-17T06:16:12.102Z,98460.47
2023-09-17T06:19:16.335Z,98462.03
2023-09-17T06:22:18.981Z,98464.47
2023-09-17T06:25:24.558Z,98468.84
2023-09-17T06:28:27.265Z,98460.50
2023-09-17T06:31:30.148Z,98460.56
2023-09-17T06:34:34.081Z,98462.97
2023-09-17T06:37:36.687Z,98465.75
2023-09-17T06:40:39.259Z,98463.78
2023-09-17T06:43:41.860Z,98463.78
2023-09-17T06:46:44.546Z,98465.34
2023-09-17T06:49:48.568Z,98459.72
2023-09-17T06:52:51.468Z,98461.28
2023-09-17T06:55:54.292Z,98465.25
2023-09-17T06:58:56.882Z,98466.78
2023-09-17T07:01:59.523Z,98460.34
2023-09-17T07:05:05.120Z,98459.88
2023-09-17T07:08:08.114Z,98464.19
2023-09-17T07:11:10.556Z,98462.56
2023-09-17T07:14:13.163Z,98461.34
2023-09-17T07:17:16.278Z,98464.88
2023-09-17T07:20:20.421Z,98458.47
2023-09-17T07:23:22.997Z,98456.03
2023-09-17T07:26:25.604Z,98457.94
2023-09-17T07:29:29.786Z,98463.50
2023-09-17T07:32:32.570Z,98471.44
2023-09-17T07:35:36.793Z,98477.44
2023-09-17T07:38:39.572Z,98476.59
2023-09-17T07:41:42.117Z,98476.59
2023-09-17T07:44:44.825Z,98474.22
2023-09-17T07:47:47.471Z,98485.41
2023-09-17T07:50:58.641Z,98489.00
2023-09-17T07:54:01.191Z,98488.59
2023-09-17T07:57:05.185Z,98496.59
2023-09-17T08:00:09.269Z,98504.19
2023-09-17T08:03:12.013Z,98499.84
2023-09-17T08:06:16.033Z,98488.28
2023-09-17T08:09:19.111Z,98487.06
2023-09-17T08:12:21.626Z,98491.00
2023-09-17T08:15:24.639Z,98496.59
2023-09-17T08:18:27.081Z,98500.50
2023-09-17T08:21:33.006Z,98507.66
2023-09-17T08:24:35.988Z,98504.44
2023-09-17T08:27:38.564Z,98503.59
2023-09-17T08:30:41.885Z,98506.75
2023-09-17T08:33:46.259Z,98509.91
2023-09-17T08:36:50.268Z,98506.28
2023-09-17T08:39:52.903Z,98507.81
2023-09-17T08:42:56.137Z,98512.88
2023-09-17T08:45:59.252Z,98504.88
2023-09-17T08:49:03.001Z,98503.22
2023-09-17T08:52:09.210Z,98503.63
2023-09-17T08:55:12.088Z,98499.94
2023-09-17T08:58:17.990Z,98499.13
2023-09-17T09:01:22.774Z,98493.88
2023-09-17T09:04:25.670Z,98498.59
2023-09-17T09:07:30.414Z,98492.16
2023-09-17T09:10:33.510Z,98486.56
2023-09-17T09:13:36.242Z,98489.72
2023-09-17T09:16:38.989Z,98489.69
2023-09-17T09:19:41.968Z,98488.44
2023-09-17T09:22:46.790Z,98485.16
2023-09-17T09:25:49.587Z,98484.72
2023-09-17T09:28:52.297Z,98487.53
2023-09-17T09:31:55.006Z,98484.72
2023-09-17T09:34:59.034Z,98473.44
2023-09-17T09:38:03.925Z,98482.59
2023-09-17T09:41:06.551Z,98477.41
2023-09-17T09:44:09.771Z,98475.38
2023-09-17T09:47:15.535Z,98470.13
2023-09-17T09:50:24.439Z,98466.50
2023-09-17T09:53:28.399Z,98463.25
2023-09-17T09:56:32.031Z,98462.81
2023-09-17T09:59:36.454Z,98456.00
2023-09-17T10:02:40.101Z,98459.19
2023-09-17T10:05:42.967Z,98452.72
2023-09-17T10:08:46.729Z,98439.06
2023-09-17T10:11:50.308Z,98434.28
2023-09-17T10:14:52.940Z,98434.63
2023-09-17T10:17:56.197Z,98429.38
2023-09-17T10:20:59.101Z,98433.34
2023-09-17T10:24:02.908Z,98419.69
2023-09-17T10:27:07.800Z,98429.66
2023-09-17T10:30:10.800Z,98431.63
2023-09-17T10:33:14.330Z,98427.59
2023-09-17T10:36:18.633Z,98427.94
2023-09-17T10:39:24.915Z,98423.13
2023-09-17T10:42:28.114Z,98419.47
2023-09-17T10:45:32.417Z,98421.84
2023-09-17T10:48:36.040Z,98414.56
2023-09-17T10:51:40.772Z,98411.34
2023-09-17T10:54:45.243Z,98398.94
2023-09-17T10:57:49.332Z,98406.44
2023-09-17T11:00:53.017Z,98418.03
2023-09-17T11:03:59.664Z,98401.56
2023-09-17T11:07:02.740Z,98397.53
2023-09-17T11:10:14.539Z,98405.09
2023-09-17T11:13:28.200Z,98392.22
2023-09-17T11:16:31.602Z,98395.78
2023-09-17T11:19:34.652Z,98399.38
2023-09-17T11:22:37.814Z,98408.97
2023-09-17T11:25:41.937Z,98411.34
2023-09-17T11:28:44.576Z,98410.09
2023-09-17T11:32:04.274Z,98409.66
2023-09-17T11:35:08.289Z,98414.84
2023-09-17T11:38:10.970Z,98410.66
2023-09-17T11:41:16.396Z,98399.78
2023-09-17T11:44:19.108Z,98398.94
2023-09-17T11:47:21.729Z,98397.25
2023-09-17T11:50:25.918Z,98400.16
2023-09-17T11:53:28.457Z,98398.22
2023-09-17T11:56:33.566Z,98397.09
2023-09-17T11:59:39.894Z,98388.31
2023-09-17T12:02:44.198Z,98385.19
2023-09-17T12:05:46.887Z,98380.47
2023-09-17T12:08:49.737Z,98370.44
2023-09-17T12:11:53.757Z,98373.25
2023-09-17T12:14:56.540Z,98376.84
2023-09-17T12:17:59.134Z,98369.25
2023-09-17T12:21:03.456Z,98367.66
2023-09-17T12:24:09.436Z,98368.44
2023-09-17T12:27:25.714Z,98358.03
2023-09-17T12:30:30.632Z,98356.44
2023-09-17T12:33:33.316Z,98362.06
2023-09-17T12:36:35.862Z,98353.66
2023-09-17T12:39:38.409Z,98351.63
2023-09-17T12:42:42.330Z,98349.66
2023-09-17T12:45:45.036Z,98346.03
2023-09-17T12:48:47.479Z,98354.81
2023-09-17T12:51:52.472Z,98352.44
2023-09-17T12:54:56.302Z,98342.44
2023-09-17T12:58:00.480Z,98333.25
2023-09-17T13:01:10.354Z,98340.44
2023-09-17T13:04:13.086Z,98341.25
2023-09-17T13:07:16.516Z,98337.22
2023-09-17T13:10:21.700Z,98330.81
2023-09-17T13:13:26.198Z,98334.41
2023-09-17T13:16:28.848Z,98327.25
2023-09-17T13:19:31.444Z,98321.97
2023-09-17T13:22:36.923Z,98317.94
2023-09-17T13:25:39.604Z,98319.50
2023-09-17T13:28:43.692Z,98315.47
2023-09-17T13:31:49.657Z,98318.66
2023-09-17T13:34:52.548Z,98319.44
2023-09-17T13:37:55.063Z,98304.97
2023-09-17T13:40:57.690Z,98299.81
2023-09-17T13:44:01.650Z,98308.22
2023-09-17T13:47:04.804Z,98303.41
2023-09-17T13:50:09.342Z,98293.78
2023-09-17T13:53:12.024Z,98296.13
2023-09-17T13:56:14.453Z,98285.31
2023-09-17T13:59:18.453Z,98288.88
2023-09-17T14:02:21.072Z,98278.09
2023-09-17T14:05:23.784Z,98278.09
2023-09-17T14:08:26.350Z,98269.63
2023-09-17T14:11:28.927Z,98270.41
2023-09-17T14:14:32.822Z,98271.19
2023-09-17T14:17:35.382Z,98261.53
2023-09-17T14:20:37.971Z,98250.69
2023-09-17T14:23:40.986Z,98249.47
2023-09-17T14:26:44.609Z,98244.22
2023-09-17T14:29:48.854Z,98230.19
2023-09-17T14:32:53.919Z,98228.19
2023-09-17T14:35:56.558Z,98221.34
2023-09-17T14:38:59.096Z,98217.75
2023-09-17T14:42:01.713Z,98207.78
2023-09-17T14:45:06.523Z,98212.94
2023-09-17T14:48:09.089Z,98212.50
2023-09-17T14:51:11.669Z,98214.09
2023-09-17T14:54:14.262Z,98210.03
2023-09-17T14:57:16.760Z,98204.78
2023-09-17T15:00:20.806Z,98207.25
2023-09-17T15:03:26.266Z,98196.03
2023-09-17T15:06:30.547Z,98190.44
2023-09-17T15:09:33.368Z,98175.63
2023-09-17T15:12:35.891Z,98173.63
2023-09-17T15:15:40.648Z,98168.00
2023-09-17T15:18:43.202Z,98170.03
2023-09-17T15:21:45.757Z,98175.97
2023-09-17T15:24:48.575Z,98173.94
2023-09-17T15:27:51.084Z,98177.13
2023-09-17T15:30:55.322Z,98166.34
2023-09-17T15:33:57.945Z,98169.94
2023-09-17T15:37:00.654Z,98173.94
2023-09-17T15:40:04.762Z,98171.16
2023-09-17T15:43:07.583Z,98167.16
2023-09-17T15:46:11.472Z,98177.13
2023-09-17T15:49:14.053Z,98177.91
2023-09-17T15:52:18.001Z,98177.91
2023-09-17T15:55:20.537Z,98170.28
2023-09-17T15:58:23.102Z,98168.25
2023-09-17T16:01:27.079Z,98169.03
2023-09-17T16:04:29.881Z,98170.28
2023-09-17T16:07:33.999Z,98163.44
2023-09-17T16:10:37.074Z,98168.72
2023-09-17T16:13:39.672Z,98159.53
2023-09-17T16:16:43.940Z,98160.31
2023-09-17T16:19:53.577Z,98153.13
2023-09-17T16:22:56.268Z,98157.13
2023-09-17T16:25:58.730Z,98156.72
2023-09-17T16:29:02.132Z,98153.13
2023-09-17T16:32:06.178Z,98154.34
2023-09-17T16:35:09.713Z,98162.75
2023-09-17T16:38:12.343Z,98157.59
2023-09-17T16:41:15.412Z,98161.63
2023-09-17T16:44:18.070Z,98154.44
2023-09-17T16:47:22.457Z,98150.88
2023-09-17T16:50:27.354Z,98160.50
2023-09-17T16:53:31.625Z,98156.09
2023-09-17T16:56:34.303Z,98156.09
2023-09-17T16:59:36.698Z,98158.91
2023-09-17T17:02:40.843Z,98164.97
2023-09-17T17:05:44.520Z,98159.81
2023-09-17T17:08:47.271Z,98157.78
2023-09-17T17:11:51.111Z,98152.63
2023-09-17T17:14:55.358Z,98148.28
2023-09-17T17:17:59.335Z,98145.09
2023-09-17T17:21:03.843Z,98160.69
2023-09-17T17:24:07.822Z,98151.06
2023-09-17T17:27:10.333Z,98147.91
2023-09-17T17:30:13.345Z,98140.28
2023-09-17T17:33:17.435Z,98141.97
2023-09-17T17:36:19.991Z,98134.34
2023-09-17T17:39:22.654Z,98132.31
2023-09-17T17:42:25.161Z,98141.50
2023-09-17T17:45:28.089Z,98142.28
2023-09-17T17:48:33.018Z,98143.53
2023-09-17T17:51:35.556Z,98139.16
2023-09-17T17:54:38.066Z,98139.94
2023-09-17T17:57:40.823Z,98139.94
2023-09-17T18:00:43.548Z,98137.16
2023-09-17T18:03:48.036Z,98138.38
2023-09-17T18:06:51.890Z,98136.03
2023-09-17T18:09:54.479Z,98132.78
2023-09-17T18:12:57.000Z,98134.78
2023-09-17T18:16:00.440Z,98137.59
2023-09-17T18:19:04.739Z,98129.19
2023-09-17T18:22:07.362Z,98134.78
2023-09-17T18:25:10.141Z,98123.59
2023-09-17T18:28:12.671Z,98116.75
2023-09-17T18:31:15.267Z,98125.94
2023-09-17T18:34:19.160Z,98131.09
2023-09-17T18:37:21.715Z,98132.31
2023-09-17T18:40:24.331Z,98131.09
2023-09-17T18:43:26.866Z,98124.69
2023-09-17T18:46:30.704Z,98119.88
2023-09-17T18:49:34.619Z,98120.66
2023-09-17T18:52:37.679Z,98129.84
2023-09-17T18:55:40.260Z,98134.25
2023-09-17T18:58:42.758Z,98125.03
2023-09-17T19:01:45.409Z,98125.84
2023-09-17T19:04:49.640Z,98128.66
2023-09-17T19:07:52.304Z,98123.06
2023-09-17T19:10:54.993Z,98126.19
2023-09-17T19:13:58.290Z,98130.22
2023-09-17T19:17:04.755Z,98130.22
2023-09-17T19:20:09.822Z,98141.44
2023-09-17T19:23:12.510Z,98143.00
2023-09-17T19:26:15.368Z,98131.78
2023-09-17T19:29:20.629Z,98133.03
2023-09-17T19:32:23.319Z,98137.41
2023-09-17T19:35:27.187Z,98133.34
2023-09-17T19:38:30.556Z,98124.63
2023-09-17T19:41:34.818Z,98139.41
2023-09-17T19:44:39.092Z,98130.22
2023-09-17T19:47:41.800Z,98136.59
2023-09-17T19:50:45.564Z,98134.59
2023-09-17T19:53:48.127Z,98137.84
2023-09-17T19:56:50.678Z,98137.06
2023-09-17T19:59:53.559Z,98141.84
2023-09-17T20:02:56.983Z,98146.66
2023-09-17T20:06:01.565Z,98136.69
2023-09-17T20:09:04.339Z,98131.09
2023-09-17T20:12:07.224Z,98127.06
2023-09-17T20:15:10.086Z,98126.72
2023-09-17T20:18:12.747Z,98119.88
2023-09-17T20:21:17.096Z,98116.75
2023-09-17T20:24:19.688Z,98115.19
2023-09-17T20:27:22.327Z,98115.19
2023-09-17T20:30:25.407Z,98119.22
2023-09-17T20:33:28.068Z,98117.63
2023-09-17T20:36:31.977Z,98114.81
2023-09-17T20:39:34.520Z,98113.63
2023-09-17T20:42:37.146Z,98114.81
2023-09-17T20:45:39.713Z,98106.41
2023-09-17T20:48:42.269Z,98111.22
2023-09-17T20:51:46.220Z,98116.06
2023-09-17T20:54:48.733Z,98112.81
2023-09-17T20:57:51.273Z,98117.63
2023-09-17T21:00:53.879Z,98105.63
2023-09-17T21:03:56.699Z,98112.00
2023-09-17T21:07:00.507Z,98104.41
2023-09-17T21:10:04.856Z,98105.63
2023-09-17T21:13:09.533Z,98094.88
2023-09-17T21:16:13.196Z,98083.66
2023-09-17T21:19:17.907Z,98081.31
2023-09-17T21:22:21.647Z,98085.69
2023-09-17T21:25:24.318Z,98087.72
2023-09-17T21:28:26.731Z,98086.47
2023-09-17T21:31:29.443Z,98077.75
2023-09-17T21:34:32.085Z,98089.72
2023-09-17T21:37:35.995Z,98084.56
2023-09-17T21:40:38.622Z,98074.56
2023-09-17T21:43:41.163Z,98075.34
2023-09-17T21:46:43.806Z,98063.38
2023-09-17T21:49:46.385Z,98067.41
2023-09-17T21:52:50.274Z,98071.78
2023-09-17T21:55:52.944Z,98063.81
2023-09-17T21:58:55.585Z,98060.56
2023-09-17T22:01:58.187Z,98056.19
2023-09-17T22:05:00.827Z,98049.03
2023-09-17T22:08:05.596Z,98047.00
2023-09-17T22:11:08.755Z,98045.00
2023-09-17T22:14:11.489Z,98037.81
2023-09-17T22:17:14.026Z,98031.00
2023-09-17T22:20:19.874Z,98032.22
2023-09-17T22:23:25.559Z,98020.69
2023-09-17T22:26:28.226Z,98019.44
2023-09-17T22:29:30.863Z,98015.41
2023-09-17T22:32:33.523Z,98015.88
2023-09-17T22:35:36.701Z,98013.84
2023-09-17T22:38:43.149Z,98005.91
2023-09-17T22:41:45.898Z,98009.47
2023-09-17T22:44:48.303Z,98000.63
2023-09-17T22:47:50.928Z,98001.06
2023-09-17T22:50:55.429Z,98006.69
2023-09-17T22:54:00.436Z,97999.50
2023-09-17T22:57:03.027Z,98000.28
2023-09-17T23:00:09.605Z,98006.69
2023-09-17T23:03:12.525Z,97991.91
2023-09-17T23:06:15.184Z,97996.72
2023-09-17T23:09:19.063Z,97993.91
2023-09-17T23:12:22.184Z,97991.13
2023-09-17T23:15:25.907Z,97987.50
2023-09-17T23:18:30.811Z,97986.72
2023-09-17T23:21:33.343Z,97981.13
2023-09-17T23:24:37.212Z,97979.09
2023-09-17T23:27:41.617Z,97986.72
2023-09-17T23:30:44.208Z,97973.94
2023-09-17T23:33:47.056Z,97976.28
2023-09-17T23:36:49.446Z,97970.69
2023-09-17T23:39:53.967Z,97965.53
2023-09-17T23:42:56.814Z,97961.97
2023-09-17T23:45:59.488Z,97962.75
2023-09-17T23:49:02.527Z,97969.91
2023-09-17T23:52:05.756Z,97957.94
2023-09-17T23:55:10.355Z,97966.31
2023-09-17T23:58:12.908Z,97966.00
